createdAt,value
2023-03-20T00:00:29.274Z,99.90
2023-03-20T00:02:59.940Z,99.90
2023-03-20T00:05:31.703Z,99.90
2023-03-20T00:08:02.200Z,99.90
2023-03-20T00:10:40.539Z,99.90
2023-03-20T00:13:15.096Z,99.90
2023-03-20T00:15:45.147Z,99.90
2023-03-20T00:18:19.189Z,99.90
2023-03-20T00:20:50.322Z,99.90
2023-03-20T00:23:19.461Z,99.90
2023-03-20T00:25:49.518Z,99.90
2023-03-20T00:28:42.772Z,99.90
2023-03-20T00:31:22.684Z,99.90
2023-03-20T00:33:51.170Z,99.90
2023-03-20T00:36:19.789Z,99.90
2023-03-20T00:38:51.340Z,99.90
2023-03-20T00:41:28.165Z,99.90
2023-03-20T00:43:59.924Z,99.90
2023-03-20T00:46:31.285Z,99.90
2023-03-20T00:49:01.793Z,99.90
2023-03-20T00:51:30.714Z,99.90
2023-03-20T00:54:01.031Z,99.90
2023-03-20T00:56:34.511Z,99.90
2023-03-20T00:59:04.682Z,99.90
2023-03-20T01:01:39.013Z,99.90
2023-03-20T01:04:12.682Z,99.90
2023-03-20T01:06:41.403Z,99.90
2023-03-20T01:09:09.700Z,99.90
2023-03-20T01:11:41.565Z,99.90
2023-03-20T01:14:15.974Z,99.90
2023-03-20T01:16:47.388Z,99.90
2023-03-20T01:19:17.664Z,99.90
2023-03-20T01:21:46.348Z,99.90
2023-03-20T01:24:15.580Z,99.90
2023-03-20T01:26:47.090Z,99.90
2023-03-20T01:29:20.493Z,99.90
2023-03-20T01:31:52.875Z,99.90
2023-03-20T01:34:25.225Z,99.90
2023-03-20T01:36:58.829Z,99.90
2023-03-20T01:39:32.973Z,99.90
2023-03-20T01:42:05.545Z,99.90
2023-03-20T01:44:37.881Z,99.90
2023-03-20T01:47:16.680Z,99.90
2023-03-20T01:50:22.626Z,99.90
2023-03-20T01:53:01.094Z,99.90
2023-03-20T01:55:31.301Z,99.90
2023-03-20T01:58:08.301Z,99.90
2023-03-20T02:00:38.177Z,99.90
2023-03-20T02:03:10.360Z,99.90
2023-03-20T02:06:01.142Z,99.90
2023-03-20T02:08:49.259Z,99.90
2023-03-20T02:11:20.331Z,99.90
2023-03-20T02:13:53.229Z,99.90
2023-03-20T02:16:23.789Z,99.90
2023-03-20T02:19:03.093Z,99.90
2023-03-20T02:22:11.570Z,99.90
2023-03-20T02:25:16.637Z,99.90
2023-03-20T02:28:07.758Z,99.90
2023-03-20T02:31:06.228Z,99.90
2023-03-20T02:34:30.033Z,99.90
2023-03-20T02:37:31.993Z,99.90
2023-03-20T02:40:18.837Z,99.90
2023-03-20T02:42:55.373Z,99.90
2023-03-20T02:45:29.893Z,99.90
2023-03-20T02:48:17.520Z,99.90
2023-03-20T02:50:51.468Z,99.90
2023-03-20T02:53:34.045Z,99.90
2023-03-20T02:56:13.580Z,99.90
2023-03-20T02:58:50.662Z,99.90
2023-03-20T03:01:24.875Z,99.90
2023-03-20T03:03:58.696Z,99.90
2023-03-20T03:06:31.783Z,99.90
2023-03-20T03:09:05.185Z,99.90
2023-03-20T03:11:39.312Z,99.90
2023-03-20T03:14:10.853Z,99.90
2023-03-20T03:16:44.036Z,99.90
2023-03-20T03:19:16.789Z,99.90
2023-03-20T03:21:48.684Z,99.90
2023-03-20T03:24:39.993Z,99.90
2023-03-20T03:27:18.173Z,99.90
2023-03-20T03:29:52.487Z,99.90
2023-03-20T03:32:27.671Z,99.90
2023-03-20T03:34:59.026Z,99.90
2023-03-20T03:37:42.645Z,99.90
2023-03-20T03:40:21.261Z,99.90
2023-03-20T03:42:59.063Z,99.90
2023-03-20T03:45:34.059Z,99.90
2023-03-20T03:48:08.455Z,99.90
2023-03-20T03:50:46.437Z,99.90
2023-03-20T03:53:19.098Z,99.90
2023-03-20T03:55:52.820Z,99.90
2023-03-20T03:58:24.906Z,99.90
2023-03-20T04:00:56.102Z,99.90
2023-03-20T04:03:31.024Z,99.90
2023-03-20T04:06:01.335Z,99.90
2023-03-20T04:08:30.615Z,99.90
2023-03-20T04:11:02.968Z,99.90
2023-03-20T04:13:32.347Z,99.90
2023-03-20T04:16:01.704Z,99.90
2023-03-20T04:18:31.768Z,99.90
2023-03-20T04:21:01.794Z,99.90
2023-03-20T04:23:30.749Z,99.90
2023-03-20T04:25:59.545Z,99.90
2023-03-20T04:28:29.831Z,99.90
2023-03-20T04:31:07.770Z,99.90
2023-03-20T04:33:50.620Z,99.90
2023-03-20T04:36:25.407Z,99.90
2023-03-20T04:38:57.509Z,99.90
2023-03-20T04:41:32.966Z,99.90
2023-03-20T04:44:03.311Z,99.90
2023-03-20T04:46:34.182Z,99.90
2023-03-20T04:49:04.785Z,99.90
2023-03-20T04:51:34.178Z,99.90
2023-03-20T04:54:03.863Z,99.90
2023-03-20T04:56:33.997Z,99.90
2023-03-20T04:59:20.206Z,99.90
2023-03-20T05:01:49.206Z,99.90
2023-03-20T05:04:19.651Z,99.90
2023-03-20T05:06:49.730Z,99.90
2023-03-20T05:09:22.327Z,99.90
2023-03-20T05:11:54.271Z,99.90
2023-03-20T05:14:43.943Z,99.90
2023-03-20T05:17:40.524Z,99.90
2023-03-20T05:20:23.110Z,99.90
2023-03-20T05:23:06.438Z,99.90
2023-03-20T05:25:56.322Z,99.90
2023-03-20T05:28:48.654Z,99.90
2023-03-20T05:31:48.787Z,99.90
2023-03-20T05:34:32.751Z,99.90
2023-03-20T05:37:08.818Z,99.90
2023-03-20T05:39:43.091Z,99.90
2023-03-20T05:42:31.454Z,99.90
2023-03-20T05:45:19.223Z,99.90
2023-03-20T05:47:59.304Z,99.90
2023-03-20T05:50:50.241Z,99.90
2023-03-20T05:53:34.643Z,99.90
2023-03-20T05:56:26.876Z,99.90
2023-03-20T05:59:15.543Z,99.90
2023-03-20T06:01:53.231Z,99.90
2023-03-20T06:04:28.140Z,99.90
2023-03-20T06:07:15.233Z,99.90
2023-03-20T06:09:49.338Z,99.90
2023-03-20T06:12:18.546Z,99.90
2023-03-20T06:14:47.765Z,99.90
2023-03-20T06:17:17.276Z,99.90
2023-03-20T06:19:52.920Z,99.90
2023-03-20T06:22:23.453Z,99.90
2023-03-20T06:24:52.131Z,99.90
2023-03-20T06:27:21.447Z,99.90
2023-03-20T06:29:51.209Z,99.90
2023-03-20T06:32:26.585Z,99.90
2023-03-20T06:34:59.517Z,99.90
2023-03-20T06:37:29.243Z,99.90
2023-03-20T06:40:07.396Z,99.90
2023-03-20T06:42:37.469Z,99.90
2023-03-20T06:45:09.334Z,99.90
2023-03-20T06:47:54.413Z,99.90
2023-03-20T06:50:26.743Z,99.90
2023-03-20T06:52:58.621Z,99.90
2023-03-20T06:55:40.586Z,99.90
2023-03-20T06:58:09.570Z,99.90
2023-03-20T07:00:42.942Z,99.90
2023-03-20T07:03:12.077Z,99.90
2023-03-20T07:05:42.430Z,99.90
2023-03-20T07:08:15.385Z,99.90
2023-03-20T07:10:44.183Z,99.90
2023-03-20T07:13:14.719Z,99.90
2023-03-20T07:16:01.229Z,99.90
2023-03-20T07:18:34.236Z,99.90
2023-03-20T07:21:06.609Z,99.90
2023-03-20T07:23:40.663Z,99.90
2023-03-20T07:26:09.568Z,99.90
2023-03-20T07:28:38.166Z,99.90
2023-03-20T07:31:25.723Z,99.90
2023-03-20T07:34:14.030Z,99.90
2023-03-20T07:36:46.556Z,99.90
2023-03-20T07:39:21.475Z,99.90
2023-03-20T07:42:13.827Z,99.90
2023-03-20T07:45:09.662Z,99.90
2023-03-20T07:47:39.128Z,99.90
2023-03-20T07:50:08.789Z,99.90
2023-03-20T07:52:41.432Z,99.90
2023-03-20T07:55:11.640Z,99.90
2023-03-20T07:57:40.473Z,99.90
2023-03-20T08:00:10.373Z,99.90
2023-03-20T08:02:43.915Z,99.90
2023-03-20T08:05:17.967Z,99.90
2023-03-20T08:07:48.456Z,99.90
2023-03-20T08:10:17.840Z,99.90
2023-03-20T08:12:48.527Z,99.90
2023-03-20T08:15:17.615Z,99.90
2023-03-20T08:17:46.936Z,99.90
2023-03-20T08:20:17.109Z,99.90
2023-03-20T08:22:49.826Z,99.90
2023-03-20T08:25:18.661Z,99.90
2023-03-20T08:27:47.448Z,99.90
2023-03-20T08:30:20.974Z,99.90
2023-03-20T08:32:50.775Z,99.90
2023-03-20T08:35:32.612Z,99.90
2023-03-20T08:38:04.670Z,99.90
2023-03-20T08:40:33.392Z,99.90
2023-03-20T08:43:02.716Z,99.90
2023-03-20T08:45:31.318Z,99.90
2023-03-20T08:47:59.985Z,99.90
2023-03-20T08:50:28.497Z,99.90
2023-03-20T08:52:56.989Z,99.90
2023-03-20T08:55:27.137Z,99.90
2023-03-20T08:57:57.367Z,99.90
2023-03-20T09:00:27.593Z,99.90
2023-03-20T09:02:57.008Z,99.90
2023-03-20T09:05:26.441Z,99.90
2023-03-20T09:07:56.004Z,99.90
2023-03-20T09:10:24.971Z,99.90
2023-03-20T09:12:55.091Z,99.90
2023-03-20T09:15:25.184Z,72.80
2023-03-20T09:17:53.922Z,56.90
2023-03-20T09:20:23.908Z,59.50
2023-03-20T09:22:52.828Z,44.40
2023-03-20T09:25:21.761Z,1.00
2023-03-20T09:27:55.526Z,5.80
2023-03-20T09:30:25.017Z,1.00
2023-03-20T09:32:53.752Z,6.90
2023-03-20T09:35:22.653Z,1.00
2023-03-20T09:37:54.783Z,1.00
2023-03-20T09:40:29.817Z,1.00
2023-03-20T09:43:10.870Z,1.00
2023-03-20T09:45:51.701Z,1.00
2023-03-20T09:48:26.799Z,1.00
2023-03-20T09:51:02.925Z,1.00
2023-03-20T09:53:37.963Z,99.90
2023-03-20T09:56:14.963Z,1.00
2023-03-20T09:58:49.466Z,99.90
2023-03-20T10:01:23.305Z,99.90
2023-03-20T10:03:55.351Z,99.90
2023-03-20T10:06:25.546Z,1.00
2023-03-20T10:08:56.823Z,1.00
2023-03-20T10:11:46.485Z,1.00
2023-03-20T10:14:35.073Z,99.90
2023-03-20T10:17:20.711Z,52.00
2023-03-20T10:19:54.972Z,2.00
2023-03-20T10:22:27.042Z,1.00
2023-03-20T10:25:01.448Z,1.00
2023-03-20T10:27:36.947Z,1.00
2023-03-20T10:30:24.883Z,99.90
2023-03-20T10:33:07.535Z,99.90
2023-03-20T10:35:41.083Z,99.90
2023-03-20T10:38:22.649Z,59.30
2023-03-20T10:40:52.547Z,1.00
2023-03-20T10:43:24.656Z,8.50
2023-03-20T10:46:00.637Z,1.00
2023-03-20T10:48:34.182Z,99.90
2023-03-20T10:51:04.751Z,3.50
2023-03-20T10:53:39.039Z,1.00
2023-03-20T10:56:11.940Z,11.20
2023-03-20T10:58:44.739Z,99.90
2023-03-20T11:01:18.507Z,99.90
2023-03-20T11:03:50.612Z,1.00
2023-03-20T11:06:22.204Z,1.00
2023-03-20T11:08:53.293Z,99.90
2023-03-20T11:11:26.254Z,1.00
2023-03-20T11:13:57.328Z,1.00
2023-03-20T11:16:33.922Z,1.00
2023-03-20T11:19:08.807Z,1.00
2023-03-20T11:21:46.844Z,99.90
2023-03-20T11:24:29.323Z,1.00
2023-03-20T11:27:08.203Z,99.90
2023-03-20T11:29:38.050Z,76.40
2023-03-20T11:32:21.900Z,99.90
2023-03-20T11:34:51.366Z,1.00
2023-03-20T11:37:25.931Z,1.00
2023-03-20T11:40:01.878Z,1.00
2023-03-20T11:42:31.833Z,1.00
2023-03-20T11:45:03.475Z,1.00
2023-03-20T11:47:37.073Z,99.90
2023-03-20T11:50:07.808Z,1.00
2023-03-20T11:52:43.332Z,1.00
2023-03-20T11:55:27.680Z,74.50
2023-03-20T11:57:59.840Z,99.90
2023-03-20T12:00:36.383Z,1.00
2023-03-20T12:03:30.046Z,1.00
2023-03-20T12:06:01.834Z,99.90
2023-03-20T12:08:32.732Z,1.00
2023-03-20T12:11:07.842Z,1.00
2023-03-20T12:13:41.163Z,99.90
2023-03-20T12:16:15.153Z,99.90
2023-03-20T12:18:47.275Z,1.00
2023-03-20T12:21:25.019Z,1.00
2023-03-20T12:23:57.949Z,99.90
2023-03-20T12:26:33.486Z,99.90
2023-03-20T12:29:08.292Z,99.90
2023-03-20T12:31:46.608Z,99.90
2023-03-20T12:34:21.457Z,99.90
2023-03-20T12:36:53.552Z,99.90
2023-03-20T12:39:25.567Z,88.20
2023-03-20T12:42:06.948Z,26.50
2023-03-20T12:44:40.990Z,96.10
2023-03-20T12:47:34.640Z,99.90
2023-03-20T12:50:13.492Z,99.90
2023-03-20T12:52:52.579Z,13.80
2023-03-20T12:55:38.017Z,58.70
2023-03-20T12:58:18.906Z,1.00
2023-03-20T13:00:55.681Z,1.00
2023-03-20T13:03:44.679Z,1.00
2023-03-20T13:06:29.698Z,99.90
2023-03-20T13:09:34.933Z,1.00
2023-03-20T13:12:12.361Z,1.00
2023-03-20T13:14:49.518Z,99.90
2023-03-20T13:17:29.144Z,99.90
2023-03-20T13:20:17.993Z,78.80
2023-03-20T13:22:59.485Z,1.00
2023-03-20T13:25:56.734Z,1.00
2023-03-20T13:28:35.284Z,1.00
2023-03-20T13:31:15.519Z,99.90
2023-03-20T13:33:53.375Z,99.90
2023-03-20T13:36:34.565Z,1.00
2023-03-20T13:39:16.516Z,1.00
2023-03-20T13:41:47.356Z,99.90
2023-03-20T13:44:23.526Z,22.90
2023-03-20T13:46:56.348Z,1.00
2023-03-20T13:49:33.058Z,1.00
2023-03-20T13:52:08.844Z,29.50
2023-03-20T13:55:01.229Z,1.00
2023-03-20T13:57:50.311Z,1.00
2023-03-20T14:00:29.811Z,1.00
2023-03-20T14:03:18.564Z,1.00
2023-03-20T14:05:48.341Z,1.00
2023-03-20T14:08:25.042Z,1.00
2023-03-20T14:11:09.229Z,1.00
2023-03-20T14:13:38.851Z,1.00
2023-03-20T14:16:15.040Z,1.00
2023-03-20T14:18:45.763Z,1.00
2023-03-20T14:21:16.666Z,1.00
2023-03-20T14:23:47.281Z,1.00
2023-03-20T14:26:24.164Z,1.00
2023-03-20T14:28:59.964Z,1.00
2023-03-20T14:31:34.168Z,1.00
2023-03-20T14:34:17.919Z,1.00
2023-03-20T14:36:53.213Z,1.00
2023-03-20T14:39:33.146Z,1.00
2023-03-20T14:42:24.924Z,1.00
2023-03-20T14:45:11.426Z,1.00
2023-03-20T14:47:49.983Z,1.00
2023-03-20T14:50:24.830Z,1.00
2023-03-20T14:53:05.139Z,1.00
2023-03-20T14:55:49.055Z,1.00
2023-03-20T14:58:54.564Z,1.00
2023-03-20T15:01:42.655Z,1.00
2023-03-20T15:04:24.801Z,1.00
2023-03-20T15:06:58.802Z,1.00
2023-03-20T15:09:31.280Z,1.00
2023-03-20T15:12:06.045Z,1.00
2023-03-20T15:14:43.675Z,1.00
2023-03-20T15:17:21.305Z,51.20
2023-03-20T15:19:49.868Z,99.90
2023-03-20T15:22:20.075Z,17.20
2023-03-20T15:24:57.475Z,99.90
2023-03-20T15:27:31.199Z,99.90
2023-03-20T15:30:04.244Z,99.90
2023-03-20T15:32:36.656Z,62.20
2023-03-20T15:35:07.280Z,99.90
2023-03-20T15:37:36.370Z,99.90
2023-03-20T15:40:15.995Z,99.90
2023-03-20T15:42:45.231Z,99.90
2023-03-20T15:45:24.944Z,99.90
2023-03-20T15:48:00.596Z,92.20
2023-03-20T15:50:33.286Z,36.80
2023-03-20T15:53:04.019Z,1.00
2023-03-20T15:55:32.801Z,1.00
2023-03-20T15:58:03.552Z,1.00
2023-03-20T16:00:36.052Z,1.00
2023-03-20T16:03:09.499Z,1.00
2023-03-20T16:05:40.245Z,20.10
2023-03-20T16:08:19.483Z,93.40
2023-03-20T16:10:49.097Z,97.70
2023-03-20T16:13:18.498Z,27.50
2023-03-20T16:15:54.875Z,99.90
2023-03-20T16:18:24.305Z,90.60
2023-03-20T16:20:56.847Z,28.90
2023-03-20T16:23:36.416Z,91.50
2023-03-20T16:26:09.407Z,99.90
2023-03-20T16:28:39.604Z,99.90
2023-03-20T16:31:15.066Z,99.90
2023-03-20T16:33:44.929Z,99.90
2023-03-20T16:36:18.931Z,99.90
2023-03-20T16:38:58.371Z,99.90
2023-03-20T16:41:31.077Z,1.00
2023-03-20T16:44:00.005Z,99.90
2023-03-20T16:46:30.367Z,99.90
2023-03-20T16:49:04.226Z,99.90
2023-03-20T16:51:33.430Z,99.90
2023-03-20T16:54:03.221Z,38.20
2023-03-20T16:56:37.054Z,68.90
2023-03-20T16:59:09.770Z,99.90
2023-03-20T17:01:44.851Z,99.90
2023-03-20T17:04:18.976Z,1.00
2023-03-20T17:06:49.658Z,99.90
2023-03-20T17:09:25.122Z,99.90
2023-03-20T17:12:03.212Z,99.90
2023-03-20T17:14:32.132Z,99.90
2023-03-20T17:17:03.112Z,1.00
2023-03-20T17:19:35.581Z,99.90
2023-03-20T17:22:05.829Z,99.90
2023-03-20T17:24:34.528Z,99.90
2023-03-20T17:27:03.342Z,99.90
2023-03-20T17:29:31.899Z,1.00
2023-03-20T17:32:01.140Z,1.00
2023-03-20T17:34:31.835Z,1.00
2023-03-20T17:37:03.251Z,1.00
2023-03-20T17:39:34.388Z,1.00
2023-03-20T17:42:03.549Z,99.90
2023-03-20T17:44:33.685Z,99.90
2023-03-20T17:47:03.502Z,99.90
2023-03-20T17:49:33.972Z,1.00
2023-03-20T17:52:02.969Z,1.00
2023-03-20T17:54:31.513Z,1.00
2023-03-20T17:56:59.928Z,21.10
2023-03-20T17:59:31.378Z,26.20
2023-03-20T18:02:01.842Z,67.70
2023-03-20T18:04:34.262Z,99.90
2023-03-20T18:07:04.644Z,99.90
2023-03-20T18:09:35.641Z,99.90
2023-03-20T18:12:07.325Z,99.90
2023-03-20T18:14:41.082Z,99.90
2023-03-20T18:17:14.456Z,99.90
2023-03-20T18:19:43.387Z,99.90
2023-03-20T18:22:13.697Z,99.90
2023-03-20T18:24:45.547Z,1.00
2023-03-20T18:27:15.970Z,1.00
2023-03-20T18:29:47.290Z,1.00
2023-03-20T18:32:17.395Z,1.00
2023-03-20T18:34:48.694Z,1.00
2023-03-20T18:37:22.057Z,1.00
2023-03-20T18:39:51.260Z,1.00
2023-03-20T18:42:19.869Z,1.00
2023-03-20T18:44:49.041Z,1.00
2023-03-20T18:47:18.766Z,1.00
2023-03-20T18:49:47.651Z,1.00
2023-03-20T18:52:16.182Z,1.00
2023-03-20T18:54:47.035Z,1.00
2023-03-20T18:57:18.383Z,1.00
2023-03-20T18:59:47.767Z,1.00
2023-03-20T19:02:17.344Z,1.00
2023-03-20T19:04:45.779Z,1.00
2023-03-20T19:07:15.033Z,1.00
2023-03-20T19:09:43.702Z,1.00
2023-03-20T19:12:13.511Z,1.00
2023-03-20T19:14:42.300Z,1.00
2023-03-20T19:17:18.807Z,1.00
2023-03-20T19:19:47.674Z,1.00
2023-03-20T19:22:29.027Z,1.00
2023-03-20T19:24:57.999Z,1.00
2023-03-20T19:27:30.921Z,1.00
2023-03-20T19:30:00.335Z,1.00
2023-03-20T19:32:29.622Z,1.00
2023-03-20T19:35:47.051Z,1.00
2023-03-20T19:37:47.038Z,1.00
2023-03-20T19:40:31.533Z,1.00
2023-03-20T19:43:03.884Z,1.00
2023-03-20T19:45:34.945Z,1.00
2023-03-20T19:48:04.862Z,1.00
2023-03-20T19:50:35.288Z,1.00
2023-03-20T19:53:08.272Z,1.00
2023-03-20T19:55:38.628Z,1.00
2023-03-20T19:58:09.880Z,1.00
2023-03-20T20:00:56.814Z,1.00
2023-03-20T20:03:28.061Z,1.00
2023-03-20T20:05:56.956Z,1.00
2023-03-20T20:08:43.900Z,1.00
2023-03-20T20:11:15.743Z,1.00
2023-03-20T20:14:05.710Z,1.00
2023-03-20T20:16:35.863Z,1.00
2023-03-20T20:19:05.936Z,1.00
2023-03-20T20:24:25.968Z,1.00
2023-03-20T20:27:15.349Z,1.00
2023-03-20T20:29:53.518Z,1.00
2023-03-20T20:32:24.279Z,1.00
2023-03-20T20:40:32.413Z,1.00
2023-03-20T20:43:02.991Z,1.00
2023-03-20T20:45:40.216Z,1.00
2023-03-20T20:48:09.553Z,1.00
2023-03-20T20:50:41.621Z,1.00
2023-03-20T20:53:11.162Z,1.00
2023-03-20T20:55:39.710Z,46.70
2023-03-20T20:58:11.700Z,84.10
2023-03-20T21:00:51.714Z,99.90
2023-03-20T21:03:22.643Z,99.90
2023-03-20T21:05:52.458Z,99.90
2023-03-20T21:08:27.830Z,99.90
2023-03-20T21:10:56.217Z,99.90
2023-03-20T21:13:24.865Z,99.90
2023-03-20T21:16:01.477Z,99.90
2023-03-20T21:18:29.885Z,99.90
2023-03-20T21:21:08.756Z,99.90
2023-03-20T21:23:37.542Z,99.90
2023-03-20T21:26:06.861Z,99.90
2023-03-20T21:28:36.020Z,99.90
2023-03-20T21:31:24.951Z,99.90
2023-03-20T21:33:56.149Z,99.90
2023-03-20T21:36:26.167Z,99.90
2023-03-20T21:39:07.840Z,99.90
2023-03-20T21:41:37.630Z,99.90
2023-03-20T21:44:08.400Z,99.90
2023-03-20T21:47:10.305Z,99.90
2023-03-20T21:56:12.668Z,99.90
2023-03-20T21:58:44.252Z,99.90
2023-03-20T22:01:31.787Z,99.90
2023-03-20T22:04:49.141Z,99.90
2023-03-20T22:12:53.546Z,99.90
2023-03-20T22:15:34.102Z,99.90
2023-03-20T22:18:50.589Z,99.90
2023-03-20T22:29:48.171Z,99.90
2023-03-20T22:35:37.995Z,99.90
2023-03-20T22:46:16.859Z,99.90
2023-03-20T22:48:49.328Z,99.90
2023-03-20T22:51:22.607Z,99.90
2023-03-20T22:53:55.792Z,99.90
2023-03-20T22:56:25.877Z,99.90
2023-03-20T22:58:55.264Z,99.90
2023-03-20T23:01:23.873Z,99.90
2023-03-20T23:03:52.569Z,99.90
2023-03-20T23:06:23.950Z,99.90
2023-03-20T23:08:58.452Z,99.90
2023-03-20T23:11:30.093Z,99.90
2023-03-20T23:13:59.557Z,99.90
2023-03-20T23:16:29.571Z,99.90
2023-03-20T23:19:00.023Z,99.90
2023-03-20T23:21:30.155Z,99.90
2023-03-20T23:24:01.070Z,99.90
2023-03-20T23:26:32.566Z,99.90
2023-03-20T23:29:03.516Z,99.90
2023-03-20T23:31:33.988Z,99.90
2023-03-20T23:34:02.792Z,99.90
2023-03-20T23:36:36.761Z,99.90
2023-03-20T23:39:09.758Z,99.90
2023-03-20T23:42:09.961Z,99.90
2023-03-20T23:44:28.335Z,99.90
2023-03-20T23:46:56.642Z,99.90
2023-03-20T23:49:26.384Z,99.90
2023-03-20T23:51:56.887Z,99.90
2023-03-20T23:54:29.737Z,99.90
2023-03-20T23:56:58.978Z,99.90
2023-03-20T23:59:28.057Z,99.90
